sensor_id;sensor_type;location;lat;lon;timestamp;pressure;altitude;pressure_sealevel;temperature;humidity
20825;BME280;10573;50.936;6.978;2023-07-31T00:00:49;100837.31;;;18.62;73.58
20825;BME280;10573;50.936;6.978;2023-07-31T00:03:15;100832.66;;;18.63;73.64
20825;BME280;10573;50.936;6.978;2023-07-31T00:05:40;100836.56;;;18.90;72.97
20825;BME280;10573;50.936;6.978;2023-07-31T00:08:05;100841.78;;;18.85;72.72
20825;BME280;10573;50.936;6.978;2023-07-31T00:10:31;100838.69;;;18.94;72.46
20825;BME280;10573;50.936;6.978;2023-07-31T00:12:56;100838.81;;;18.86;72.79
20825;BME280;10573;50.936;6.978;2023-07-31T00:15:21;100839.84;;;19.00;72.58
20825;BME280;10573;50.936;6.978;2023-07-31T00:17:47;100844.44;;;18.93;72.92
20825;BME280;10573;50.936;6.978;2023-07-31T00:20:12;100839.31;;;18.90;73.12
20825;BME280;10573;50.936;6.978;2023-07-31T00:22:38;100834.75;;;18.82;73.37
20825;BME280;10573;50.936;6.978;2023-07-31T00:25:03;100836.81;;;18.95;73.37
20825;BME280;10573;50.936;6.978;2023-07-31T00:27:31;100841.94;;;18.98;73.34
20825;BME280;10573;50.936;6.978;2023-07-31T00:29:57;100835.34;;;18.99;73.38
20825;BME280;10573;50.936;6.978;2023-07-31T00:32:22;100838.91;;;18.93;73.52
20825;BME280;10573;50.936;6.978;2023-07-31T00:34:47;100838.06;;;18.92;73.16
20825;BME280;10573;50.936;6.978;2023-07-31T00:37:13;100838.50;;;18.96;73.28
20825;BME280;10573;50.936;6.978;2023-07-31T00:39:38;100836.34;;;18.91;73.14
20825;BME280;10573;50.936;6.978;2023-07-31T00:42:04;100835.78;;;19.03;72.79
20825;BME280;10573;50.936;6.978;2023-07-31T00:44:29;100835.50;;;18.91;73.00
20825;BME280;10573;50.936;6.978;2023-07-31T00:46:55;100833.84;;;18.97;72.44
20825;BME280;10573;50.936;6.978;2023-07-31T00:49:22;100831.72;;;18.99;72.19
20825;BME280;10573;50.936;6.978;2023-07-31T00:51:47;100823.31;;;19.07;71.59
20825;BME280;10573;50.936;6.978;2023-07-31T00:54:13;100837.72;;;19.02;71.78
20825;BME280;10573;50.936;6.978;2023-07-31T00:56:40;100833.44;;;19.00;71.50
20825;BME280;10573;50.936;6.978;2023-07-31T00:59:05;100820.25;;;18.95;71.30
20825;BME280;10573;50.936;6.978;2023-07-31T01:01:31;100819.44;;;19.01;71.19
20825;BME280;10573;50.936;6.978;2023-07-31T01:03:56;100818.94;;;18.91;71.32
20825;BME280;10573;50.936;6.978;2023-07-31T01:12:00;100805.19;;;18.98;70.87
20825;BME280;10573;50.936;6.978;2023-07-31T01:14:26;100802.88;;;19.01;70.55
20825;BME280;10573;50.936;6.978;2023-07-31T01:16:52;100793.59;;;19.09;70.41
20825;BME280;10573;50.936;6.978;2023-07-31T01:19:21;100806.03;;;18.98;70.58
20825;BME280;10573;50.936;6.978;2023-07-31T01:22:16;100801.19;;;19.00;69.84
20825;BME280;10573;50.936;6.978;2023-07-31T01:27:34;100795.03;;;19.05;69.30
20825;BME280;10573;50.936;6.978;2023-07-31T01:30:08;100797.44;;;19.15;69.21
20825;BME280;10573;50.936;6.978;2023-07-31T01:32:40;100795.31;;;19.10;69.26
20825;BME280;10573;50.936;6.978;2023-07-31T01:35:07;100800.47;;;19.20;68.95
20825;BME280;10573;50.936;6.978;2023-07-31T01:37:34;100805.00;;;18.99;69.15
20825;BME280;10573;50.936;6.978;2023-07-31T01:39:59;100802.59;;;19.18;68.84
20825;BME280;10573;50.936;6.978;2023-07-31T01:42:24;100810.63;;;19.13;68.80
20825;BME280;10573;50.936;6.978;2023-07-31T01:44:50;100805.56;;;19.23;68.66
20825;BME280;10573;50.936;6.978;2023-07-31T01:47:15;100811.47;;;19.13;68.94
20825;BME280;10573;50.936;6.978;2023-07-31T01:49:41;100803.47;;;19.25;68.71
20825;BME280;10573;50.936;6.978;2023-07-31T01:52:06;100803.94;;;19.28;68.74
20825;BME280;10573;50.936;6.978;2023-07-31T01:54:32;100809.00;;;19.25;68.77
20825;BME280;10573;50.936;6.978;2023-07-31T01:56:58;100804.88;;;19.14;68.93
20825;BME280;10573;50.936;6.978;2023-07-31T01:59:24;100798.31;;;19.15;69.17
20825;BME280;10573;50.936;6.978;2023-07-31T02:01:49;100797.06;;;19.18;69.21
20825;BME280;10573;50.936;6.978;2023-07-31T02:04:14;100803.06;;;19.28;68.97
20825;BME280;10573;50.936;6.978;2023-07-31T02:06:40;100791.13;;;19.21;69.01
20825;BME280;10573;50.936;6.978;2023-07-31T02:09:05;100795.84;;;19.27;69.13
20825;BME280;10573;50.936;6.978;2023-07-31T02:11:30;100795.03;;;19.33;68.81
20825;BME280;10573;50.936;6.978;2023-07-31T02:13:56;100788.00;;;19.31;68.97
20825;BME280;10573;50.936;6.978;2023-07-31T02:16:21;100794.44;;;19.38;68.75
20825;BME280;10573;50.936;6.978;2023-07-31T02:18:47;100786.94;;;19.32;68.83
20825;BME280;10573;50.936;6.978;2023-07-31T02:21:12;100778.72;;;19.38;68.71
20825;BME280;10573;50.936;6.978;2023-07-31T02:23:37;100767.19;;;19.35;68.64
20825;BME280;10573;50.936;6.978;2023-07-31T02:26:03;100761.47;;;19.36;68.51
20825;BME280;10573;50.936;6.978;2023-07-31T02:28:29;100764.00;;;19.31;68.70
20825;BME280;10573;50.936;6.978;2023-07-31T02:30:54;100761.34;;;19.44;68.24
20825;BME280;10573;50.936;6.978;2023-07-31T02:33:20;100761.50;;;19.43;68.00
20825;BME280;10573;50.936;6.978;2023-07-31T02:35:45;100758.66;;;19.29;67.82
20825;BME280;10573;50.936;6.978;2023-07-31T02:38:10;100754.72;;;19.45;67.76
20825;BME280;10573;50.936;6.978;2023-07-31T02:40:36;100754.47;;;19.40;67.73
20825;BME280;10573;50.936;6.978;2023-07-31T02:43:01;100751.28;;;19.37;67.79
20825;BME280;10573;50.936;6.978;2023-07-31T02:45:27;100760.66;;;19.42;67.51
20825;BME280;10573;50.936;6.978;2023-07-31T02:47:52;100750.69;;;19.48;67.51
20825;BME280;10573;50.936;6.978;2023-07-31T02:50:17;100751.53;;;19.42;67.56
20825;BME280;10573;50.936;6.978;2023-07-31T02:52:43;100753.44;;;19.41;67.50
20825;BME280;10573;50.936;6.978;2023-07-31T02:55:08;100749.19;;;19.45;67.78
20825;BME280;10573;50.936;6.978;2023-07-31T02:57:34;100741.16;;;19.51;67.39
20825;BME280;10573;50.936;6.978;2023-07-31T02:59:59;100750.06;;;19.46;67.40
20825;BME280;10573;50.936;6.978;2023-07-31T03:02:24;100755.81;;;19.44;67.48
20825;BME280;10573;50.936;6.978;2023-07-31T03:04:50;100748.19;;;19.53;67.16
20825;BME280;10573;50.936;6.978;2023-07-31T03:07:15;100746.84;;;19.42;67.55
20825;BME280;10573;50.936;6.978;2023-07-31T03:09:40;100746.19;;;19.40;67.26
20825;BME280;10573;50.936;6.978;2023-07-31T03:12:06;100739.06;;;19.53;67.07
20825;BME280;10573;50.936;6.978;2023-07-31T03:14:32;100742.25;;;19.56;66.77
20825;BME280;10573;50.936;6.978;2023-07-31T03:16:57;100738.09;;;19.39;67.25
20825;BME280;10573;50.936;6.978;2023-07-31T03:19:23;100737.38;;;19.58;67.06
20825;BME280;10573;50.936;6.978;2023-07-31T03:21:48;100739.84;;;19.47;67.12
20825;BME280;10573;50.936;6.978;2023-07-31T03:24:13;100723.31;;;19.53;67.29
20825;BME280;10573;50.936;6.978;2023-07-31T03:26:39;100725.88;;;19.55;67.05
20825;BME280;10573;50.936;6.978;2023-07-31T03:29:07;100725.88;;;19.55;66.98
20825;BME280;10573;50.936;6.978;2023-07-31T03:31:32;100721.25;;;19.62;66.66
20825;BME280;10573;50.936;6.978;2023-07-31T03:33:57;100724.19;;;19.60;66.75
20825;BME280;10573;50.936;6.978;2023-07-31T03:36:23;100720.59;;;19.60;66.57
20825;BME280;10573;50.936;6.978;2023-07-31T03:38:48;100719.72;;;19.53;66.94
20825;BME280;10573;50.936;6.978;2023-07-31T03:41:13;100717.19;;;19.58;66.95
20825;BME280;10573;50.936;6.978;2023-07-31T03:43:39;100719.06;;;19.57;67.38
20825;BME280;10573;50.936;6.978;2023-07-31T03:46:04;100724.78;;;19.49;68.32
20825;BME280;10573;50.936;6.978;2023-07-31T03:48:31;100713.44;;;19.37;68.75
20825;BME280;10573;50.936;6.978;2023-07-31T03:50:57;100710.91;;;19.36;69.13
20825;BME280;10573;50.936;6.978;2023-07-31T03:53:22;100709.66;;;19.38;69.03
20825;BME280;10573;50.936;6.978;2023-07-31T03:55:48;100704.91;;;19.32;69.19
20825;BME280;10573;50.936;6.978;2023-07-31T03:58:13;100711.72;;;19.29;69.32
20825;BME280;10573;50.936;6.978;2023-07-31T04:00:40;100707.56;;;19.12;70.17
20825;BME280;10573;50.936;6.978;2023-07-31T04:03:05;100704.63;;;19.14;70.49
20825;BME280;10573;50.936;6.978;2023-07-31T04:05:32;100698.19;;;19.06;71.12
20825;BME280;10573;50.936;6.978;2023-07-31T04:07:57;100700.63;;;19.23;70.81
20825;BME280;10573;50.936;6.978;2023-07-31T04:10:23;100699.53;;;19.17;70.80
20825;BME280;10573;50.936;6.978;2023-07-31T04:12:48;100692.56;;;19.28;70.34
20825;BME280;10573;50.936;6.978;2023-07-31T04:15:14;100698.13;;;19.35;70.48
20825;BME280;10573;50.936;6.978;2023-07-31T04:17:39;100687.75;;;19.37;70.17
20825;BME280;10573;50.936;6.978;2023-07-31T04:20:05;100692.19;;;19.31;70.17
20825;BME280;10573;50.936;6.978;2023-07-31T04:22:31;100695.66;;;19.47;69.76
20825;BME280;10573;50.936;6.978;2023-07-31T04:24:56;100694.59;;;19.48;69.68
20825;BME280;10573;50.936;6.978;2023-07-31T04:27:21;100699.44;;;19.39;69.70
20825;BME280;10573;50.936;6.978;2023-07-31T04:29:47;100696.69;;;19.45;69.39
20825;BME280;10573;50.936;6.978;2023-07-31T04:32:13;100684.22;;;19.56;69.15
20825;BME280;10573;50.936;6.978;2023-07-31T04:34:38;100683.81;;;19.59;69.08
20825;BME280;10573;50.936;6.978;2023-07-31T04:37:04;100692.31;;;19.58;68.73
20825;BME280;10573;50.936;6.978;2023-07-31T04:39:29;100687.19;;;19.61;68.72
20825;BME280;10573;50.936;6.978;2023-07-31T04:41:54;100690.66;;;19.70;68.61
20825;BME280;10573;50.936;6.978;2023-07-31T04:44:20;100684.25;;;19.70;68.22
20825;BME280;10573;50.936;6.978;2023-07-31T04:46:45;100688.72;;;19.71;68.25
20825;BME280;10573;50.936;6.978;2023-07-31T04:49:11;100682.59;;;19.75;67.48
20825;BME280;10573;50.936;6.978;2023-07-31T04:51:37;100681.28;;;19.71;67.27
20825;BME280;10573;50.936;6.978;2023-07-31T04:54:02;100683.66;;;19.74;66.66
20825;BME280;10573;50.936;6.978;2023-07-31T04:56:27;100679.91;;;19.89;65.97
20825;BME280;10573;50.936;6.978;2023-07-31T04:58:53;100681.38;;;19.91;65.78
20825;BME280;10573;50.936;6.978;2023-07-31T05:01:18;100674.41;;;20.02;65.55
20825;BME280;10573;50.936;6.978;2023-07-31T05:03:44;100663.97;;;19.98;65.33
20825;BME280;10573;50.936;6.978;2023-07-31T05:06:09;100671.59;;;19.89;65.29
20825;BME280;10573;50.936;6.978;2023-07-31T05:08:35;100663.09;;;19.84;65.47
20825;BME280;10573;50.936;6.978;2023-07-31T05:11:00;100659.25;;;19.91;65.28
20825;BME280;10573;50.936;6.978;2023-07-31T05:13:25;100653.34;;;20.01;65.01
20825;BME280;10573;50.936;6.978;2023-07-31T05:15:51;100655.91;;;20.09;64.56
20825;BME280;10573;50.936;6.978;2023-07-31T05:18:16;100649.94;;;20.12;64.22
20825;BME280;10573;50.936;6.978;2023-07-31T05:20:42;100654.19;;;20.15;64.04
20825;BME280;10573;50.936;6.978;2023-07-31T05:23:08;100645.25;;;20.06;64.06
20825;BME280;10573;50.936;6.978;2023-07-31T05:25:33;100649.50;;;20.29;63.79
20825;BME280;10573;50.936;6.978;2023-07-31T05:27:59;100648.44;;;20.30;63.84
20825;BME280;10573;50.936;6.978;2023-07-31T05:30:24;100650.16;;;20.31;64.04
20825;BME280;10573;50.936;6.978;2023-07-31T05:32:50;100638.03;;;20.39;63.51
20825;BME280;10573;50.936;6.978;2023-07-31T05:35:15;100632.91;;;20.42;63.53
20825;BME280;10573;50.936;6.978;2023-07-31T05:37:41;100638.44;;;20.49;63.87
20825;BME280;10573;50.936;6.978;2023-07-31T05:40:07;100630.78;;;20.44;63.30
20825;BME280;10573;50.936;6.978;2023-07-31T05:42:32;100624.00;;;20.34;63.27
20825;BME280;10573;50.936;6.978;2023-07-31T05:44:57;100614.41;;;20.36;63.54
20825;BME280;10573;50.936;6.978;2023-07-31T05:47:23;100617.63;;;20.33;63.51
20825;BME280;10573;50.936;6.978;2023-07-31T05:49:49;100607.38;;;20.27;63.95
20825;BME280;10573;50.936;6.978;2023-07-31T05:52:14;100605.47;;;20.34;63.78
20825;BME280;10573;50.936;6.978;2023-07-31T05:54:41;100603.13;;;20.31;63.68
20825;BME280;10573;50.936;6.978;2023-07-31T05:57:06;100598.88;;;20.35;63.54
20825;BME280;10573;50.936;6.978;2023-07-31T05:59:32;100595.47;;;20.33;63.50
20825;BME280;10573;50.936;6.978;2023-07-31T06:01:58;100589.06;;;20.26;64.01
20825;BME280;10573;50.936;6.978;2023-07-31T06:04:24;100595.47;;;20.26;64.17
20825;BME280;10573;50.936;6.978;2023-07-31T06:06:51;100602.69;;;20.07;64.50
20825;BME280;10573;50.936;6.978;2023-07-31T06:09:16;100602.06;;;20.12;65.00
20825;BME280;10573;50.936;6.978;2023-07-31T06:11:41;100609.09;;;20.15;65.57
20825;BME280;10573;50.936;6.978;2023-07-31T06:14:07;100603.56;;;19.94;66.10
20825;BME280;10573;50.936;6.978;2023-07-31T06:16:32;100606.31;;;20.01;66.55
20825;BME280;10573;50.936;6.978;2023-07-31T06:18:57;100607.16;;;20.02;66.33
20825;BME280;10573;50.936;6.978;2023-07-31T06:21:23;100609.91;;;19.95;67.09
20825;BME280;10573;50.936;6.978;2023-07-31T06:23:48;100618.03;;;20.17;66.45
20825;BME280;10573;50.936;6.978;2023-07-31T06:26:14;100611.00;;;20.21;67.06
20825;BME280;10573;50.936;6.978;2023-07-31T06:28:39;100610.81;;;20.02;67.35
20825;BME280;10573;50.936;6.978;2023-07-31T06:31:05;100613.97;;;19.99;67.15
20825;BME280;10573;50.936;6.978;2023-07-31T06:33:30;100598.03;;;20.15;67.56
20825;BME280;10573;50.936;6.978;2023-07-31T06:35:55;100605.25;;;20.16;68.32
20825;BME280;10573;50.936;6.978;2023-07-31T06:38:26;100598.88;;;20.08;68.58
20825;BME280;10573;50.936;6.978;2023-07-31T06:40:52;100601.19;;;20.11;68.43
20825;BME280;10573;50.936;6.978;2023-07-31T06:43:18;100600.56;;;20.36;68.75
20825;BME280;10573;50.936;6.978;2023-07-31T06:45:43;100597.81;;;20.23;68.14
20825;BME280;10573;50.936;6.978;2023-07-31T06:48:09;100592.06;;;20.24;69.21
20825;BME280;10573;50.936;6.978;2023-07-31T06:50:35;100594.00;;;20.10;68.48
20825;BME280;10573;50.936;6.978;2023-07-31T06:53:00;100590.34;;;20.10;68.15
20825;BME280;10573;50.936;6.978;2023-07-31T06:55:26;100586.31;;;20.26;68.00
20825;BME280;10573;50.936;6.978;2023-07-31T06:57:54;100587.81;;;20.35;67.86
20825;BME280;10573;50.936;6.978;2023-07-31T07:00:20;100586.09;;;20.34;68.23
20825;BME280;10573;50.936;6.978;2023-07-31T07:02:46;100592.91;;;20.38;67.99
20825;BME280;10573;50.936;6.978;2023-07-31T07:05:16;100587.81;;;20.28;68.35
20825;BME280;10573;50.936;6.978;2023-07-31T07:07:41;100585.25;;;20.40;68.53
20825;BME280;10573;50.936;6.978;2023-07-31T07:10:07;100584.16;;;20.55;68.33
20825;BME280;10573;50.936;6.978;2023-07-31T07:12:33;100580.53;;;20.48;67.99
20825;BME280;10573;50.936;6.978;2023-07-31T07:14:59;100576.50;;;20.37;68.79
20825;BME280;10573;50.936;6.978;2023-07-31T07:17:27;100584.41;;;20.33;68.79
20825;BME280;10573;50.936;6.978;2023-07-31T07:19:52;100577.38;;;20.51;68.74
20825;BME280;10573;50.936;6.978;2023-07-31T07:22:18;100579.50;;;20.42;68.67
20825;BME280;10573;50.936;6.978;2023-07-31T07:24:43;100576.09;;;20.47;68.68
20825;BME280;10573;50.936;6.978;2023-07-31T07:27:09;100578.00;;;20.46;68.52
20825;BME280;10573;50.936;6.978;2023-07-31T07:29:35;100575.22;;;20.59;68.41
20825;BME280;10573;50.936;6.978;2023-07-31T07:32:00;100585.03;;;20.35;68.88
20825;BME280;10573;50.936;6.978;2023-07-31T07:34:27;100583.31;;;20.34;68.42
20825;BME280;10573;50.936;6.978;2023-07-31T07:36:53;100594.81;;;20.31;68.73
20825;BME280;10573;50.936;6.978;2023-07-31T07:39:18;100589.50;;;20.36;68.32
20825;BME280;10573;50.936;6.978;2023-07-31T07:41:44;100595.47;;;20.40;69.34
20825;BME280;10573;50.936;6.978;2023-07-31T07:44:09;100589.06;;;20.33;69.16
20825;BME280;10573;50.936;6.978;2023-07-31T07:46:34;100588.66;;;20.29;69.91
20825;BME280;10573;50.936;6.978;2023-07-31T07:49:00;100581.84;;;20.25;70.25
20825;BME280;10573;50.936;6.978;2023-07-31T07:51:25;100586.53;;;20.18;70.29
20825;BME280;10573;50.936;6.978;2023-07-31T07:53:51;100586.97;;;20.08;70.81
20825;BME280;10573;50.936;6.978;2023-07-31T07:56:16;100589.75;;;20.15;71.01
20825;BME280;10573;50.936;6.978;2023-07-31T07:58:41;100586.97;;;20.01;71.75
20825;BME280;10573;50.936;6.978;2023-07-31T08:01:07;100596.97;;;20.09;71.99
20825;BME280;10573;50.936;6.978;2023-07-31T08:03:32;100589.50;;;19.96;73.06
20825;BME280;10573;50.936;6.978;2023-07-31T08:05:59;100604.63;;;20.00;73.00
20825;BME280;10573;50.936;6.978;2023-07-31T08:08:24;100604.38;;;19.88;72.31
20825;BME280;10573;50.936;6.978;2023-07-31T08:10:49;100593.78;;;19.99;71.15
20825;BME280;10573;50.936;6.978;2023-07-31T08:13:15;100592.91;;;19.98;70.19
20825;BME280;10573;50.936;6.978;2023-07-31T08:15:43;100583.53;;;19.99;69.64
20825;BME280;10573;50.936;6.978;2023-07-31T08:18:09;100585.03;;;20.08;69.94
20825;BME280;10573;50.936;6.978;2023-07-31T08:20:36;100588.00;;;19.87;68.70
20825;BME280;10573;50.936;6.978;2023-07-31T08:23:02;100576.72;;;19.88;69.15
20825;BME280;10573;50.936;6.978;2023-07-31T08:25:27;100570.38;;;19.88;68.65
20825;BME280;10573;50.936;6.978;2023-07-31T08:27:52;100565.06;;;19.86;68.70
20825;BME280;10573;50.936;6.978;2023-07-31T08:30:19;100566.94;;;19.86;68.40
20825;BME280;10573;50.936;6.978;2023-07-31T08:32:44;100556.72;;;19.73;69.53
20825;BME280;10573;50.936;6.978;2023-07-31T08:35:10;100551.22;;;19.86;70.44
20825;BME280;10573;50.936;6.978;2023-07-31T08:37:35;100562.28;;;19.93;70.76
20825;BME280;10573;50.936;6.978;2023-07-31T08:40:01;100550.59;;;20.04;70.31
20825;BME280;10573;50.936;6.978;2023-07-31T08:42:26;100546.31;;;19.95;70.04
20825;BME280;10573;50.936;6.978;2023-07-31T08:44:52;100544.84;;;20.12;70.34
20825;BME280;10573;50.936;6.978;2023-07-31T08:47:19;100538.00;;;20.28;70.64
20825;BME280;10573;50.936;6.978;2023-07-31T08:49:46;100541.00;;;20.27;70.32
20825;BME280;10573;50.936;6.978;2023-07-31T08:52:11;100539.28;;;20.39;70.92
20825;BME280;10573;50.936;6.978;2023-07-31T08:54:37;100536.53;;;20.19;71.71
20825;BME280;10573;50.936;6.978;2023-07-31T08:57:03;100534.19;;;20.36;72.13
20825;BME280;10573;50.936;6.978;2023-07-31T08:59:30;100538.25;;;20.14;71.24
20825;BME280;10573;50.936;6.978;2023-07-31T09:01:57;100541.44;;;20.10;71.81
20825;BME280;10573;50.936;6.978;2023-07-31T09:04:26;100545.47;;;20.28;71.43
20825;BME280;10573;50.936;6.978;2023-07-31T09:06:57;100553.09;;;20.46;70.77
20825;BME280;10573;50.936;6.978;2023-07-31T09:09:24;100550.34;;;20.26;70.26
20825;BME280;10573;50.936;6.978;2023-07-31T09:11:50;100564.84;;;20.28;70.28
20825;BME280;10573;50.936;6.978;2023-07-31T09:14:17;100555.44;;;20.29;71.03
20825;BME280;10573;50.936;6.978;2023-07-31T09:16:56;100555.00;;;20.52;70.78
20825;BME280;10573;50.936;6.978;2023-07-31T09:19:26;100559.47;;;20.60;70.97
20825;BME280;10573;50.936;6.978;2023-07-31T09:21:51;100559.69;;;20.38;70.55
20825;BME280;10573;50.936;6.978;2023-07-31T09:24:31;100566.13;;;20.12;70.56
20825;BME280;10573;50.936;6.978;2023-07-31T09:26:58;100555.06;;;20.05;71.08
20825;BME280;10573;50.936;6.978;2023-07-31T09:29:24;100552.50;;;20.17;71.37
20825;BME280;10573;50.936;6.978;2023-07-31T09:31:50;100544.00;;;19.99;71.14
20825;BME280;10573;50.936;6.978;2023-07-31T09:34:16;100542.94;;;19.93;71.04
20825;BME280;10573;50.936;6.978;2023-07-31T09:36:46;100534.19;;;20.09;71.10
20825;BME280;10573;50.936;6.978;2023-07-31T09:39:13;100523.56;;;20.33;70.91
20825;BME280;10573;50.936;6.978;2023-07-31T09:41:40;100526.31;;;20.33;70.94
20825;BME280;10573;50.936;6.978;2023-07-31T09:44:06;100526.09;;;20.41;70.03
20825;BME280;10573;50.936;6.978;2023-07-31T09:46:34;100520.91;;;20.58;70.08
20825;BME280;10573;50.936;6.978;2023-07-31T09:49:11;100514.94;;;20.68;70.16
20825;BME280;10573;50.936;6.978;2023-07-31T09:51:41;100518.34;;;20.77;71.14
20825;BME280;10573;50.936;6.978;2023-07-31T09:54:15;100518.72;;;20.87;70.48
20825;BME280;10573;50.936;6.978;2023-07-31T09:56:46;100512.56;;;20.78;69.10
20825;BME280;10573;50.936;6.978;2023-07-31T09:59:17;100517.78;;;21.07;68.24
20825;BME280;10573;50.936;6.978;2023-07-31T10:01:44;100507.19;;;21.36;68.06
20825;BME280;10573;50.936;6.978;2023-07-31T10:04:12;100511.88;;;21.35;66.59
20825;BME280;10573;50.936;6.978;2023-07-31T10:06:38;100500.53;;;21.43;66.53
20825;BME280;10573;50.936;6.978;2023-07-31T10:09:09;100500.00;;;21.60;66.47
20825;BME280;10573;50.936;6.978;2023-07-31T10:11:45;100499.97;;;21.67;65.22
20825;BME280;10573;50.936;6.978;2023-07-31T10:14:20;100495.72;;;21.64;64.94
20825;BME280;10573;50.936;6.978;2023-07-31T10:16:45;100497.63;;;21.89;64.88
20825;BME280;10573;50.936;6.978;2023-07-31T10:19:11;100487.16;;;21.91;64.88
20825;BME280;10573;50.936;6.978;2023-07-31T10:21:37;100490.84;;;21.85;65.03
20825;BME280;10573;50.936;6.978;2023-07-31T10:24:04;100496.00;;;21.81;65.17
20825;BME280;10573;50.936;6.978;2023-07-31T10:26:31;100493.56;;;21.66;65.09
20825;BME280;10573;50.936;6.978;2023-07-31T10:28:57;100490.53;;;21.74;64.87
20825;BME280;10573;50.936;6.978;2023-07-31T10:31:23;100490.56;;;21.68;64.76
20825;BME280;10573;50.936;6.978;2023-07-31T10:33:50;100483.28;;;21.73;64.22
20825;BME280;10573;50.936;6.978;2023-07-31T10:36:19;100488.41;;;21.70;63.07
20825;BME280;10573;50.936;6.978;2023-07-31T10:38:48;100492.13;;;21.82;63.31
20825;BME280;10573;50.936;6.978;2023-07-31T10:41:14;100476.13;;;21.59;61.67
20825;BME280;10573;50.936;6.978;2023-07-31T10:43:39;100491.50;;;21.55;61.68
20825;BME280;10573;50.936;6.978;2023-07-31T10:46:12;100491.16;;;21.38;61.16
20825;BME280;10573;50.936;6.978;2023-07-31T10:48:40;100491.94;;;21.52;61.38
20825;BME280;10573;50.936;6.978;2023-07-31T10:51:11;100488.91;;;21.60;61.33
20825;BME280;10573;50.936;6.978;2023-07-31T10:53:37;100487.63;;;21.62;61.40
20825;BME280;10573;50.936;6.978;2023-07-31T10:56:08;100485.31;;;21.59;61.08
20825;BME280;10573;50.936;6.978;2023-07-31T10:58:34;100477.00;;;21.53;61.07
20825;BME280;10573;50.936;6.978;2023-07-31T11:01:02;100487.50;;;21.76;61.07
20825;BME280;10573;50.936;6.978;2023-07-31T11:03:48;100489.53;;;21.62;61.31
20825;BME280;10573;50.936;6.978;2023-07-31T11:06:15;100488.53;;;21.50;63.25
20825;BME280;10573;50.936;6.978;2023-07-31T11:08:45;100494.06;;;21.50;63.68
20825;BME280;10573;50.936;6.978;2023-07-31T11:11:13;100504.00;;;21.32;64.49
20825;BME280;10573;50.936;6.978;2023-07-31T11:13:40;100496.94;;;21.04;66.40
20825;BME280;10573;50.936;6.978;2023-07-31T11:16:06;100498.25;;;20.95;66.81
20825;BME280;10573;50.936;6.978;2023-07-31T11:18:31;100496.09;;;20.97;67.28
20825;BME280;10573;50.936;6.978;2023-07-31T11:20:57;100493.09;;;20.99;66.90
20825;BME280;10573;50.936;6.978;2023-07-31T11:23:23;100495.16;;;21.17;66.58
20825;BME280;10573;50.936;6.978;2023-07-31T11:25:49;100483.63;;;21.20;65.60
20825;BME280;10573;50.936;6.978;2023-07-31T11:28:17;100481.91;;;21.19;65.34
20825;BME280;10573;50.936;6.978;2023-07-31T11:30:44;100479.97;;;21.51;65.04
20825;BME280;10573;50.936;6.978;2023-07-31T11:33:10;100482.88;;;21.70;63.37
20825;BME280;10573;50.936;6.978;2023-07-31T11:35:41;100472.53;;;22.02;63.12
20825;BME280;10573;50.936;6.978;2023-07-31T11:38:07;100474.00;;;22.05;62.28
20825;BME280;10573;50.936;6.978;2023-07-31T11:40:41;100465.66;;;22.30;61.29
20825;BME280;10573;50.936;6.978;2023-07-31T11:43:07;100467.97;;;22.33;60.62
20825;BME280;10573;50.936;6.978;2023-07-31T11:45:33;100457.53;;;22.35;60.59
20825;BME280;10573;50.936;6.978;2023-07-31T11:47:58;100455.56;;;22.17;60.46
20825;BME280;10573;50.936;6.978;2023-07-31T11:50:24;100456.44;;;22.55;58.46
20825;BME280;10573;50.936;6.978;2023-07-31T11:52:55;100442.34;;;22.56;58.30
20825;BME280;10573;50.936;6.978;2023-07-31T11:55:23;100452.06;;;22.96;58.15
20825;BME280;10573;50.936;6.978;2023-07-31T11:57:49;100451.97;;;22.72;58.32
20825;BME280;10573;50.936;6.978;2023-07-31T12:00:15;100446.56;;;22.59;58.90
20825;BME280;10573;50.936;6.978;2023-07-31T12:02:42;100448.13;;;22.36;59.19
20825;BME280;10573;50.936;6.978;2023-07-31T12:05:11;100453.78;;;22.23;60.17
20825;BME280;10573;50.936;6.978;2023-07-31T12:10:10;100444.34;;;21.87;61.10
20825;BME280;10573;50.936;6.978;2023-07-31T12:12:36;100441.50;;;21.93;61.24
20825;BME280;10573;50.936;6.978;2023-07-31T12:15:01;100440.06;;;22.09;60.89
20825;BME280;10573;50.936;6.978;2023-07-31T12:17:27;100443.72;;;22.03;61.52
20825;BME280;10573;50.936;6.978;2023-07-31T12:19:52;100429.25;;;22.01;61.83
20825;BME280;10573;50.936;6.978;2023-07-31T12:22:20;100433.81;;;22.14;61.24
20825;BME280;10573;50.936;6.978;2023-07-31T12:24:46;100439.19;;;22.09;61.57
20825;BME280;10573;50.936;6.978;2023-07-31T12:27:15;100442.44;;;22.06;61.46
20825;BME280;10573;50.936;6.978;2023-07-31T12:29:43;100440.28;;;22.08;61.71
20825;BME280;10573;50.936;6.978;2023-07-31T12:32:20;100435.81;;;22.25;60.63
20825;BME280;10573;50.936;6.978;2023-07-31T12:34:46;100442.63;;;22.29;60.61
20825;BME280;10573;50.936;6.978;2023-07-31T12:37:11;100441.81;;;22.22;61.00
20825;BME280;10573;50.936;6.978;2023-07-31T12:39:37;100444.72;;;21.90;61.31
20825;BME280;10573;50.936;6.978;2023-07-31T12:42:03;100438.16;;;21.85;61.50
20825;BME280;10573;50.936;6.978;2023-07-31T12:44:28;100438.00;;;21.79;61.76
20825;BME280;10573;50.936;6.978;2023-07-31T12:46:53;100444.25;;;21.93;61.36
20825;BME280;10573;50.936;6.978;2023-07-31T12:49:19;100440.34;;;22.01;60.95
20825;BME280;10573;50.936;6.978;2023-07-31T12:51:44;100440.31;;;21.83;61.67
20825;BME280;10573;50.936;6.978;2023-07-31T12:54:09;100441.25;;;21.95;61.49
20825;BME280;10573;50.936;6.978;2023-07-31T12:56:35;100433.94;;;22.01;61.36